createdAt,value
2019-04-14T00:02:23.563Z,35.67
2019-04-14T00:04:52.966Z,38.57
2019-04-14T00:07:21.415Z,38.80
2019-04-14T00:09:50.236Z,39.90
2019-04-14T00:12:20.843Z,37.20
2019-04-14T00:14:49.125Z,41.00
2019-04-14T00:17:17.577Z,36.57
2019-04-14T00:19:47.826Z,38.80
2019-04-14T00:22:18.376Z,38.23
2019-04-14T00:24:46.713Z,42.30
2019-04-14T00:27:17.071Z,44.97
2019-04-14T00:29:46.140Z,40.83
2019-04-14T00:32:16.143Z,38.17
2019-04-14T00:34:53.091Z,42.07
2019-04-14T00:37:27.335Z,35.37
2019-04-14T00:40:01.875Z,40.30
2019-04-14T00:42:38.737Z,41.13
2019-04-14T00:45:11.377Z,40.97
2019-04-14T00:47:54.736Z,43.67
2019-04-14T00:50:12.735Z,41.90
2019-04-14T00:52:42.059Z,39.07
2019-04-14T00:55:12.193Z,38.57
2019-04-14T00:57:41.951Z,40.73
2019-04-14T01:00:10.770Z,46.67
2019-04-14T01:02:40.695Z,41.50
2019-04-14T01:05:10.901Z,43.33
2019-04-14T01:07:39.153Z,38.67
2019-04-14T01:10:08.170Z,46.80
2019-04-14T01:12:36.681Z,43.13
2019-04-14T01:15:07.093Z,43.50
2019-04-14T01:17:35.261Z,44.10
2019-04-14T01:20:03.918Z,43.40
2019-04-14T01:22:33.608Z,39.20
2019-04-14T01:25:02.414Z,40.30
2019-04-14T01:27:32.004Z,41.30
2019-04-14T01:30:00.738Z,43.73
2019-04-14T01:32:30.524Z,50.20
2019-04-14T01:34:59.157Z,47.17
2019-04-14T01:37:28.980Z,45.67
2019-04-14T01:39:58.871Z,45.17
2019-04-14T01:42:26.804Z,49.07
2019-04-14T01:44:55.455Z,42.47
2019-04-14T01:47:25.076Z,47.53
2019-04-14T01:49:55.098Z,47.53
2019-04-14T01:52:29.535Z,48.57
2019-04-14T01:55:02.898Z,45.80
2019-04-14T01:57:37.314Z,47.07
2019-04-14T02:00:12.019Z,47.53
2019-04-14T02:02:40.415Z,42.10
2019-04-14T02:05:10.293Z,42.80
2019-04-14T02:07:38.313Z,45.57
2019-04-14T02:10:06.988Z,45.17
2019-04-14T02:12:36.596Z,44.67
2019-04-14T02:15:05.174Z,47.33
2019-04-14T02:17:34.983Z,40.60
2019-04-14T02:20:03.429Z,47.40
2019-04-14T02:22:33.359Z,44.63
2019-04-14T02:25:01.423Z,44.80
2019-04-14T02:27:30.262Z,44.53
2019-04-14T02:30:00.353Z,46.60
2019-04-14T02:32:57.244Z,48.20
2019-04-14T02:35:32.134Z,45.07
2019-04-14T02:37:58.963Z,47.27
2019-04-14T02:40:31.220Z,47.53
2019-04-14T02:43:08.422Z,44.07
2019-04-14T02:45:32.218Z,43.57
2019-04-14T02:50:17.893Z,48.97
2019-04-14T02:55:15.274Z,43.50
2019-04-14T02:57:44.814Z,45.73
2019-04-14T03:00:21.657Z,40.50
2019-04-14T03:02:56.432Z,41.77
2019-04-14T03:05:09.465Z,39.07
2019-04-14T03:10:10.973Z,46.30
2019-04-14T03:12:38.812Z,44.97
2019-04-14T03:15:15.578Z,42.03
2019-04-14T03:17:47.327Z,36.87
2019-04-14T03:20:27.897Z,45.23
2019-04-14T03:25:22.504Z,46.83
2019-04-14T03:28:12.485Z,47.10
2019-04-14T03:31:09.332Z,53.83
2019-04-14T03:33:42.817Z,53.80
2019-04-14T03:36:05.977Z,47.30
2019-04-14T03:38:12.807Z,50.43
2019-04-14T03:43:13.075Z,53.17
2019-04-14T03:45:46.732Z,49.50
2019-04-14T03:48:34.402Z,49.83
2019-04-14T03:53:07.816Z,47.97
2019-04-14T03:55:24.012Z,53.97
2019-04-14T03:57:34.582Z,53.47
2019-04-14T04:00:05.218Z,57.47
2019-04-14T04:02:33.726Z,57.13
2019-04-14T04:05:02.594Z,53.83
2019-04-14T04:07:32.284Z,58.37
2019-04-14T04:10:05.102Z,54.77
2019-04-14T04:12:33.649Z,57.37
2019-04-14T04:15:02.521Z,50.93
2019-04-14T04:17:36.279Z,50.37
2019-04-14T04:21:11.695Z,59.33
2019-04-14T04:23:46.742Z,54.97
2019-04-14T04:26:21.126Z,58.43
2019-04-14T04:28:54.408Z,49.33
2019-04-14T04:31:28.577Z,54.17
2019-04-14T04:34:59.986Z,52.50
2019-04-14T04:37:34.399Z,53.47
2019-04-14T04:40:07.236Z,48.83
2019-04-14T04:42:35.370Z,51.57
2019-04-14T04:45:04.341Z,58.37
2019-04-14T04:47:33.789Z,53.50
2019-04-14T04:50:02.443Z,53.33
2019-04-14T04:52:32.258Z,54.10
2019-04-14T04:55:01.047Z,54.03
2019-04-14T04:57:30.638Z,50.67
2019-04-14T04:59:58.845Z,50.27
2019-04-14T05:02:28.718Z,49.50
2019-04-14T05:04:57.103Z,50.83
2019-04-14T05:07:27.337Z,46.13
2019-04-14T05:10:02.671Z,50.23
2019-04-14T05:12:37.428Z,49.17
2019-04-14T05:15:16.235Z,51.37
2019-04-14T05:17:45.273Z,51.70
2019-04-14T05:20:13.834Z,46.70
2019-04-14T05:22:42.482Z,50.63
2019-04-14T05:25:12.449Z,50.00
2019-04-14T05:27:41.359Z,55.63
2019-04-14T05:30:11.064Z,53.23
2019-04-14T05:32:39.656Z,52.50
2019-04-14T05:35:09.790Z,51.53
2019-04-14T05:37:38.610Z,48.53
2019-04-14T05:40:08.103Z,52.73
2019-04-14T05:42:38.391Z,53.63
2019-04-14T05:45:06.703Z,51.70
2019-04-14T05:47:35.485Z,49.47
2019-04-14T05:50:05.144Z,48.57
2019-04-14T05:52:36.105Z,58.37
2019-04-14T05:55:04.840Z,58.93
2019-04-14T05:57:33.631Z,50.73
2019-04-14T06:00:03.710Z,51.83
2019-04-14T06:02:32.082Z,51.30
2019-04-14T06:05:00.066Z,60.70
2019-04-14T06:07:28.923Z,56.57
2019-04-14T06:09:57.864Z,45.07
2019-04-14T06:12:27.171Z,48.37
2019-04-14T06:14:55.975Z,51.13
2019-04-14T06:17:25.463Z,47.07
2019-04-14T06:19:54.331Z,49.80
2019-04-14T06:22:23.156Z,45.40
2019-04-14T06:24:52.273Z,50.83
2019-04-14T06:27:23.335Z,45.23
2019-04-14T06:29:56.569Z,43.07
2019-04-14T06:32:39.550Z,42.63
2019-04-14T06:35:15.641Z,46.70
2019-04-14T06:37:49.657Z,46.63
2019-04-14T06:40:18.668Z,44.90
2019-04-14T06:42:47.530Z,41.13
2019-04-14T06:45:16.386Z,45.00
2019-04-14T06:47:45.391Z,46.30
2019-04-14T06:50:14.190Z,40.23
2019-04-14T06:52:43.020Z,39.63
2019-04-14T06:55:11.904Z,44.07
2019-04-14T06:57:40.695Z,41.73
2019-04-14T07:00:09.505Z,38.07
2019-04-14T07:02:38.341Z,38.37
2019-04-14T07:05:07.187Z,44.93
2019-04-14T07:07:35.983Z,39.90
2019-04-14T07:10:05.183Z,32.77
2019-04-14T07:12:34.032Z,38.67
2019-04-14T07:15:02.818Z,32.40
2019-04-14T07:17:31.736Z,30.27
2019-04-14T07:20:02.266Z,35.20
2019-04-14T07:22:29.552Z,33.33
2019-04-14T07:24:58.747Z,30.43
2019-04-14T07:27:28.166Z,26.93
2019-04-14T07:30:03.836Z,32.87
2019-04-14T07:32:45.968Z,28.93
2019-04-14T07:39:20.044Z,78.73
2019-04-14T07:41:59.900Z,29.07
2019-04-14T07:44:36.977Z,33.43
2019-04-14T07:47:13.047Z,29.47
2019-04-14T10:10:57.417Z,24.33
2019-04-14T10:13:26.218Z,24.10
2019-04-14T10:15:55.162Z,22.73
2019-04-14T10:18:24.349Z,21.93
2019-04-14T10:20:55.362Z,20.93
2019-04-14T10:23:24.379Z,21.27
2019-04-14T10:25:53.706Z,25.57
2019-04-14T10:28:23.111Z,23.67
2019-04-14T10:30:51.912Z,25.20
2019-04-14T10:33:20.752Z,21.83
2019-04-14T10:35:50.624Z,19.97
2019-04-14T10:38:19.469Z,25.00
2019-04-14T10:40:48.294Z,24.90
2019-04-14T10:43:17.107Z,24.67
2019-04-14T10:45:45.914Z,21.40
2019-04-14T10:48:16.035Z,23.07
2019-04-14T10:50:45.776Z,24.60
2019-04-14T10:53:14.585Z,20.67
2019-04-14T10:55:43.421Z,25.57
2019-04-14T10:58:12.291Z,24.70
2019-04-14T11:00:42.923Z,22.63
2019-04-14T11:03:11.698Z,23.90
2019-04-14T11:05:48.583Z,20.07
2019-04-14T11:08:18.222Z,21.93
2019-04-14T11:10:47.700Z,23.37
2019-04-14T11:13:16.470Z,20.70
2019-04-14T11:15:45.286Z,18.20
2019-04-14T11:18:14.676Z,20.83
2019-04-14T11:20:43.978Z,18.60
2019-04-14T11:23:12.813Z,19.20
2019-04-14T11:25:42.572Z,17.43
2019-04-14T11:28:11.398Z,18.63
2019-04-14T11:30:41.100Z,27.23
2019-04-14T11:33:17.464Z,21.77
2019-04-14T11:35:52.330Z,20.17
2019-04-14T11:38:24.990Z,17.43
2019-04-14T11:40:56.624Z,18.67
2019-04-14T11:43:25.523Z,21.87
2019-04-14T11:45:54.447Z,20.53
2019-04-14T11:48:24.582Z,20.17
2019-04-14T11:50:53.509Z,18.17
2019-04-14T11:53:22.419Z,16.43
2019-04-14T11:55:51.758Z,17.33
2019-04-14T11:58:20.575Z,16.40
2019-04-14T12:00:56.551Z,17.43
2019-04-14T12:03:37.458Z,18.87
2019-04-14T12:07:16.489Z,20.07
2019-04-14T12:10:22.546Z,16.23
2019-04-14T12:12:51.345Z,19.07
2019-04-14T12:15:20.484Z,19.43
2019-04-14T12:17:49.327Z,15.93
2019-04-14T12:20:18.199Z,19.90
2019-04-14T12:22:46.981Z,16.37
2019-04-14T12:25:15.781Z,16.23
2019-04-14T12:27:46.583Z,15.77
2019-04-14T12:30:15.827Z,17.87
2019-04-14T12:32:43.755Z,18.43
2019-04-14T12:35:12.831Z,20.40
2019-04-14T12:37:41.602Z,18.17
2019-04-14T12:40:10.579Z,18.77
2019-04-14T12:42:50.340Z,16.80
2019-04-14T12:45:25.276Z,18.27
2019-04-14T12:48:00.121Z,14.60
2019-04-14T12:50:48.917Z,18.53
2019-04-14T12:53:18.156Z,14.17
2019-04-14T12:55:46.975Z,13.83
2019-04-14T12:58:16.382Z,14.70
2019-04-14T13:00:48.942Z,14.77
2019-04-14T13:03:17.729Z,16.90
2019-04-14T13:05:47.167Z,16.03
2019-04-14T13:08:15.981Z,16.63
2019-04-14T13:10:45.306Z,15.13
2019-04-14T13:13:14.144Z,14.07
2019-04-14T13:15:43.008Z,14.43
2019-04-14T13:18:11.802Z,15.43
2019-04-14T13:20:42.119Z,13.93
2019-04-14T13:23:11.915Z,16.10
2019-04-14T13:25:40.723Z,13.43
2019-04-14T13:28:09.567Z,14.27
2019-04-14T13:30:40.767Z,14.47
2019-04-14T13:33:09.620Z,15.10
2019-04-14T13:35:38.503Z,18.93
2019-04-14T13:38:07.516Z,24.77
2019-04-14T13:40:36.908Z,14.20
2019-04-14T13:43:05.739Z,14.23
2019-04-14T13:45:34.551Z,15.77
2019-04-14T13:48:04.448Z,16.07
2019-04-14T13:50:33.267Z,16.27
2019-04-14T13:53:02.435Z,18.87
2019-04-14T13:55:31.222Z,17.70
2019-04-14T13:58:00.060Z,17.23
2019-04-14T14:00:28.975Z,14.73
2019-04-14T14:02:57.867Z,13.67
2019-04-14T14:05:26.775Z,15.63
2019-04-14T14:07:56.753Z,14.03
2019-04-14T14:10:25.792Z,15.93
2019-04-14T14:12:58.456Z,14.33
2019-04-14T14:15:35.020Z,15.33
2019-04-14T14:18:10.199Z,15.27
2019-04-14T14:20:47.389Z,14.30
2019-04-14T14:23:20.891Z,13.87
2019-04-14T14:25:53.578Z,15.30
2019-04-14T14:28:22.415Z,14.30
2019-04-14T14:30:51.201Z,15.83
2019-04-14T14:33:21.433Z,16.13
2019-04-14T14:35:51.555Z,15.70
2019-04-14T14:38:20.389Z,14.13
2019-04-14T14:40:49.461Z,18.27
2019-04-14T14:43:18.020Z,15.60
2019-04-14T14:45:56.661Z,17.60
2019-04-14T14:48:46.174Z,14.93
2019-04-14T14:51:22.116Z,16.17
2019-04-14T14:53:52.068Z,14.43
2019-04-14T14:56:20.849Z,16.60
2019-04-14T14:58:50.425Z,18.53
2019-04-14T15:01:19.249Z,13.97
2019-04-14T15:03:48.630Z,15.13
2019-04-14T15:06:17.726Z,22.20
2019-04-14T15:08:46.653Z,16.27
2019-04-14T15:11:15.460Z,14.40
2019-04-14T15:13:44.444Z,20.53
2019-04-14T15:16:14.724Z,18.47
2019-04-14T15:18:43.541Z,18.50
2019-04-14T15:21:12.345Z,15.43
2019-04-14T15:23:41.962Z,14.70
2019-04-14T15:26:10.817Z,17.03
2019-04-14T15:28:41.036Z,17.70
2019-04-14T15:31:09.806Z,18.77
2019-04-14T15:33:38.793Z,16.83
2019-04-14T15:36:08.506Z,19.80
2019-04-14T15:38:40.593Z,17.03
2019-04-14T15:41:10.675Z,20.50
2019-04-14T15:43:41.327Z,21.90
2019-04-14T15:46:13.627Z,15.53
2019-04-14T15:48:42.689Z,17.50
2019-04-14T15:51:12.507Z,17.67
2019-04-14T15:53:41.303Z,18.07
2019-04-14T15:56:10.089Z,17.67
2019-04-14T15:58:51.715Z,21.37
2019-04-14T16:01:27.695Z,17.93
2019-04-14T16:04:03.411Z,22.13
2019-04-14T16:06:37.663Z,21.27
2019-04-14T16:09:12.491Z,21.47
2019-04-14T16:11:46.431Z,22.00
2019-04-14T16:15:18.188Z,20.80
2019-04-14T16:17:52.146Z,17.70
2019-04-14T16:20:25.535Z,21.97
2019-04-14T16:22:54.471Z,17.70
2019-04-14T16:25:24.576Z,22.60
2019-04-14T16:27:57.965Z,17.43
2019-04-14T16:30:37.088Z,21.67
2019-04-14T16:33:10.139Z,26.00
2019-04-14T16:35:39.120Z,17.80
2019-04-14T16:38:09.339Z,17.97
2019-04-14T16:40:38.862Z,20.07
2019-04-14T16:43:07.672Z,17.03
2019-04-14T16:45:36.533Z,18.43
2019-04-14T16:48:10.888Z,19.10
2019-04-14T16:50:43.232Z,20.40
2019-04-14T16:53:16.185Z,19.90
2019-04-14T16:55:49.219Z,26.70
2019-04-14T16:58:22.669Z,30.53
2019-04-14T17:00:56.595Z,22.10
2019-04-14T17:03:25.384Z,20.77
2019-04-14T17:05:54.436Z,21.37
2019-04-14T17:08:23.249Z,26.17
2019-04-14T17:10:52.042Z,24.33
2019-04-14T17:13:21.641Z,26.63
2019-04-14T17:16:06.678Z,19.87
2019-04-14T17:18:48.957Z,23.87
2019-04-14T17:21:41.228Z,17.33
2019-04-14T17:24:21.246Z,24.13
2019-04-14T17:26:55.690Z,20.40
2019-04-14T17:29:31.584Z,18.63
2019-04-14T17:32:10.256Z,20.10
2019-04-14T17:34:45.310Z,16.17
2019-04-14T17:37:18.285Z,27.77
2019-04-14T17:39:55.887Z,17.17
2019-04-14T17:42:30.004Z,22.17
2019-04-14T17:45:04.691Z,19.40
2019-04-14T17:47:43.662Z,17.70
2019-04-14T17:50:19.614Z,17.00
2019-04-14T17:52:57.621Z,23.47
2019-04-14T17:55:30.952Z,17.87
2019-04-14T17:58:13.352Z,19.13
2019-04-14T18:01:53.307Z,21.13
2019-04-14T18:05:25.572Z,20.33
2019-04-14T18:07:58.319Z,21.73
2019-04-14T18:10:35.291Z,17.73
2019-04-14T18:13:09.223Z,20.60
2019-04-14T18:15:43.042Z,20.73
2019-04-14T18:18:17.936Z,21.40
2019-04-14T18:20:49.507Z,26.77
2019-04-14T18:23:19.334Z,19.57
2019-04-14T18:25:48.175Z,20.23
2019-04-14T18:28:22.478Z,17.93
2019-04-14T18:30:55.934Z,17.53
2019-04-14T18:33:28.960Z,18.83
2019-04-14T18:36:02.947Z,22.37
2019-04-14T18:40:40.608Z,19.80
2019-04-14T18:43:14.464Z,23.97
2019-04-14T18:45:48.424Z,18.73
2019-04-14T18:48:24.894Z,23.23
2019-04-14T18:50:58.971Z,21.67
2019-04-14T18:53:34.834Z,15.90
2019-04-14T18:56:11.828Z,25.27
2019-04-14T18:59:53.963Z,20.70
2019-04-14T19:02:22.759Z,21.20
2019-04-14T19:04:51.560Z,28.03
2019-04-14T19:07:20.432Z,36.37
2019-04-14T19:09:49.237Z,21.30
2019-04-14T19:12:24.437Z,23.53
2019-04-14T19:14:57.803Z,21.80
2019-04-14T19:17:31.897Z,26.43
2019-04-14T19:20:02.234Z,22.73
2019-04-14T19:22:29.520Z,23.03
2019-04-14T19:25:07.828Z,21.13
2019-04-14T19:27:27.725Z,19.03
2019-04-14T19:29:57.566Z,19.23
2019-04-14T19:32:26.365Z,22.77
2019-04-14T19:34:55.231Z,21.33
2019-04-14T19:37:26.025Z,21.93
2019-04-14T19:39:54.899Z,20.83
2019-04-14T19:42:23.776Z,19.83
2019-04-14T19:44:52.611Z,24.17
2019-04-14T19:47:21.676Z,24.70
2019-04-14T19:49:51.054Z,25.47
2019-04-14T19:52:19.846Z,23.83
2019-04-14T19:54:48.834Z,24.27
2019-04-14T19:57:17.635Z,22.70
2019-04-14T19:59:46.739Z,24.57
2019-04-14T20:02:15.618Z,20.27
2019-04-14T20:04:44.471Z,24.47
2019-04-14T20:07:13.293Z,25.30
2019-04-14T20:09:42.086Z,22.93
2019-04-14T20:12:11.918Z,18.23
2019-04-14T20:14:40.729Z,23.73
2019-04-14T20:17:14.852Z,22.37
2019-04-14T20:19:48.970Z,22.07
2019-04-14T20:22:23.360Z,20.70
2019-04-14T20:25:56.257Z,22.23
2019-04-14T20:28:29.723Z,25.23
2019-04-14T20:31:04.770Z,26.67
2019-04-14T20:33:34.401Z,20.20
2019-04-14T20:36:05.383Z,19.97
2019-04-14T20:38:32.823Z,22.47
2019-04-14T20:41:08.397Z,26.00
2019-04-14T20:43:37.246Z,20.73
2019-04-14T20:46:06.087Z,25.07
2019-04-14T20:48:34.884Z,20.27
2019-04-14T20:51:03.719Z,22.50
2019-04-14T20:53:32.547Z,20.03
2019-04-14T20:56:01.350Z,20.37
2019-04-14T20:58:30.168Z,19.63
2019-04-14T21:00:59.116Z,23.37
2019-04-14T21:03:37.914Z,20.70
2019-04-14T21:06:18.975Z,21.40
2019-04-14T21:09:56.946Z,18.67
2019-04-14T21:13:03.438Z,21.23
2019-04-14T21:15:38.303Z,16.57
2019-04-14T21:18:13.910Z,16.50
2019-04-14T21:20:56.066Z,14.53
2019-04-14T21:23:39.608Z,14.90
2019-04-14T21:26:12.175Z,13.73
2019-04-14T21:28:51.662Z,14.40
2019-04-14T21:31:25.464Z,13.77
2019-04-14T21:33:58.404Z,12.47
2019-04-14T21:36:32.836Z,16.50
2019-04-14T21:39:08.188Z,10.10
2019-04-14T21:41:37.017Z,13.40
2019-04-14T21:44:05.776Z,13.10
2019-04-14T21:46:34.561Z,10.60
2019-04-14T21:49:03.923Z,10.23
2019-04-14T21:51:38.094Z,9.50
2019-04-14T21:54:06.910Z,10.27
2019-04-14T21:56:35.741Z,14.60
2019-04-14T21:59:10.203Z,12.83
2019-04-14T22:01:44.398Z,11.07
2019-04-14T22:04:23.286Z,8.77
2019-04-14T22:06:52.154Z,11.07
2019-04-14T22:09:25.141Z,10.00
2019-04-14T22:11:53.963Z,9.20
2019-04-14T22:14:22.781Z,11.13
2019-04-14T22:16:51.631Z,10.37
2019-04-14T22:19:20.469Z,9.50
2019-04-14T22:21:49.380Z,10.30
2019-04-14T22:24:18.209Z,10.70
2019-04-14T22:26:47.020Z,11.37
2019-04-14T22:29:16.246Z,11.40
2019-04-14T22:31:45.906Z,12.63
2019-04-14T22:34:14.706Z,13.83
2019-04-14T22:36:44.149Z,14.60
2019-04-14T22:39:14.980Z,11.30
2019-04-14T22:41:43.897Z,14.73
2019-04-14T22:44:12.711Z,16.13
2019-04-14T22:46:41.574Z,15.27
2019-04-14T22:49:10.386Z,13.33
2019-04-14T22:51:39.275Z,13.20
2019-04-14T22:54:09.315Z,12.60
2019-04-14T22:56:39.999Z,13.33
2019-04-14T22:59:08.799Z,13.07
2019-04-14T23:01:38.555Z,11.83
2019-04-14T23:04:15.351Z,13.47
2019-04-14T23:07:09.548Z,13.20
2019-04-14T23:09:45.720Z,15.20
2019-04-14T23:12:22.872Z,14.37
2019-04-14T23:17:00.744Z,13.40
2019-04-14T23:19:33.799Z,15.37
2019-04-14T23:22:11.883Z,14.87
2019-04-14T23:24:43.673Z,17.53
2019-04-14T23:27:12.468Z,16.17
2019-04-14T23:29:41.880Z,14.80
2019-04-14T23:32:10.704Z,13.23
2019-04-14T23:34:40.066Z,13.90
2019-04-14T23:37:08.891Z,16.70
2019-04-14T23:39:39.301Z,15.23
2019-04-14T23:42:08.121Z,15.43
2019-04-14T23:44:36.897Z,17.17
2019-04-14T23:47:05.990Z,14.60
2019-04-14T23:49:35.920Z,16.80
2019-04-14T23:52:04.731Z,13.37
2019-04-14T23:54:33.535Z,16.83
2019-04-14T23:57:06.094Z,13.43
2019-04-14T23:59:32.487Z,15.60
